Creedmoor, North Carolina
Current Conditions -  °F | °C
As of 10:51 AM on Thursday 30 Oct 2014 (Local Time) from KRDU Reporting Station
Few Clouds Few Clouds  
Wind Chill: 61°   Ceiling: Unl
Heat Index: 61°   Visibility: 10mi
Dew Point: 49°   Wind: 5mph
Humidity: 64%   Direction: 10°N
Pressure: 30.06"   Gusts: NA
Location:  36.12°N, 78.69°W
Report Text: KRDU 301451Z 01004KT 10SM FEW025 16/09 A3006 RMK AO2 SLP178 T01610094 50007
Loading
Personal Weather Stations






























Interactive Weather Map New forecast layout! Learn more

10-Day Weather Forecast

Advertisements
Track Severe Weather on mobile